createdAt,value
2022-08-30T00:02:10.882Z,9.25
2022-08-30T00:04:37.654Z,8.82
2022-08-30T00:07:04.799Z,9.18
2022-08-30T00:09:32.562Z,8.88
2022-08-30T00:12:00.101Z,8.75
2022-08-30T00:14:27.688Z,8.93
2022-08-30T00:16:54.475Z,9.05
2022-08-30T00:19:21.471Z,9.23
2022-08-30T00:21:48.119Z,9.07
2022-08-30T00:24:15.640Z,9.38
2022-08-30T00:26:42.250Z,9.73
2022-08-30T00:29:08.902Z,9.50
2022-08-30T00:31:35.586Z,9.57
2022-08-30T00:34:02.251Z,9.15
2022-08-30T00:36:29.426Z,10.48
2022-08-30T00:38:56.050Z,10.90
2022-08-30T00:41:23.018Z,10.10
2022-08-30T00:43:49.648Z,10.50
2022-08-30T00:46:16.428Z,9.93
2022-08-30T00:48:48.088Z,9.77
2022-08-30T00:51:15.959Z,10.68
2022-08-30T00:53:46.854Z,9.88
2022-08-30T00:56:14.525Z,10.23
2022-08-30T00:58:45.842Z,10.25
2022-08-30T01:01:13.250Z,11.13
2022-08-30T01:03:41.666Z,10.85
2022-08-30T01:06:08.323Z,11.60
2022-08-30T01:08:35.454Z,11.07
2022-08-30T01:11:04.472Z,10.93
2022-08-30T01:13:34.217Z,12.35
2022-08-30T01:16:02.228Z,10.93
2022-08-30T01:18:29.880Z,11.13
2022-08-30T01:21:07.402Z,11.25
2022-08-30T01:23:40.459Z,11.00
2022-08-30T01:26:07.595Z,10.73
2022-08-30T01:28:35.472Z,11.63
2022-08-30T01:31:02.583Z,11.40
2022-08-30T01:33:29.486Z,11.43
2022-08-30T01:36:03.512Z,11.30
2022-08-30T01:38:44.813Z,11.63
2022-08-30T01:41:23.889Z,11.60
2022-08-30T01:43:52.407Z,11.82
2022-08-30T01:46:24.424Z,11.85
2022-08-30T01:48:54.520Z,11.95
2022-08-30T01:51:23.054Z,12.65
2022-08-30T01:53:50.194Z,13.07
2022-08-30T01:56:17.520Z,13.13
2022-08-30T01:58:44.750Z,14.05
2022-08-30T02:01:14.923Z,14.30
2022-08-30T02:03:44.235Z,14.85
2022-08-30T02:06:14.290Z,14.68
2022-08-30T02:08:41.975Z,14.77
2022-08-30T02:11:09.597Z,15.80
2022-08-30T02:13:40.255Z,17.05
2022-08-30T02:16:08.992Z,16.40
2022-08-30T02:18:37.143Z,16.35
2022-08-30T02:21:04.109Z,15.48
2022-08-30T02:23:31.310Z,15.20
2022-08-30T02:25:58.959Z,14.98
2022-08-30T02:28:25.960Z,13.25
2022-08-30T02:30:53.106Z,13.52
2022-08-30T02:33:20.299Z,12.50
2022-08-30T02:35:46.900Z,12.60
2022-08-30T02:38:14.054Z,13.02
2022-08-30T02:40:40.945Z,13.48
2022-08-30T02:43:07.756Z,13.88
2022-08-30T02:45:34.605Z,14.00
2022-08-30T02:48:01.354Z,13.88
2022-08-30T02:50:28.032Z,13.50
2022-08-30T02:52:55.421Z,13.38
2022-08-30T02:55:22.684Z,13.50
2022-08-30T02:57:49.652Z,15.02
2022-08-30T03:00:19.799Z,14.73
2022-08-30T03:02:47.143Z,15.25
2022-08-30T03:05:15.784Z,14.60
2022-08-30T03:07:43.314Z,14.82
2022-08-30T03:10:10.986Z,14.95
2022-08-30T03:12:38.190Z,14.45
2022-08-30T03:15:10.252Z,13.57
2022-08-30T03:17:36.827Z,13.10
2022-08-30T03:20:04.826Z,13.88
2022-08-30T03:22:31.585Z,14.07
2022-08-30T03:24:59.710Z,13.07
2022-08-30T03:27:27.593Z,13.73
2022-08-30T03:29:54.596Z,14.65
2022-08-30T03:32:21.696Z,13.48
2022-08-30T03:34:48.659Z,14.88
2022-08-30T03:37:15.348Z,15.57
2022-08-30T03:39:42.098Z,14.68
2022-08-30T03:42:08.779Z,14.60
2022-08-30T03:44:36.007Z,15.25
2022-08-30T03:47:04.355Z,15.32
2022-08-30T03:49:31.847Z,14.73
2022-08-30T03:51:58.770Z,15.00
2022-08-30T03:54:25.730Z,15.18
2022-08-30T03:56:52.520Z,15.27
2022-08-30T03:59:19.309Z,16.85
2022-08-30T04:01:47.955Z,17.58
2022-08-30T04:04:20.538Z,16.08
2022-08-30T04:06:48.270Z,16.92
2022-08-30T04:09:15.123Z,16.92
2022-08-30T04:11:42.260Z,17.60
2022-08-30T04:14:09.110Z,18.52
2022-08-30T04:16:36.650Z,17.05
2022-08-30T04:19:03.622Z,17.05
2022-08-30T04:21:30.455Z,18.75
2022-08-30T04:23:57.139Z,17.85
2022-08-30T04:26:23.955Z,17.33
2022-08-30T04:28:56.085Z,16.67
2022-08-30T04:31:23.116Z,17.10
2022-08-30T04:33:50.642Z,16.92
2022-08-30T04:36:17.327Z,18.50
2022-08-30T04:38:44.000Z,18.25
2022-08-30T04:41:16.976Z,15.90
2022-08-30T04:43:50.661Z,16.40
2022-08-30T04:46:19.121Z,16.63
2022-08-30T04:48:46.428Z,17.58
2022-08-30T04:51:16.841Z,15.77
2022-08-30T04:53:44.516Z,17.65
2022-08-30T04:56:16.690Z,17.25
2022-08-30T04:58:45.084Z,16.58
2022-08-30T05:01:14.525Z,16.90
2022-08-30T05:03:45.807Z,18.38
2022-08-30T05:06:13.991Z,18.40
2022-08-30T05:08:41.067Z,18.83
2022-08-30T05:11:13.807Z,18.48
2022-08-30T05:13:40.472Z,17.63
2022-08-30T05:16:08.816Z,18.80
2022-08-30T05:18:37.148Z,17.15
2022-08-30T05:21:16.863Z,16.88
2022-08-30T05:23:44.642Z,17.75
2022-08-30T05:26:17.919Z,17.30
2022-08-30T05:28:45.373Z,16.50
2022-08-30T05:31:25.075Z,17.17
2022-08-30T05:33:53.632Z,15.63
2022-08-30T05:36:22.705Z,15.35
2022-08-30T05:38:50.289Z,17.40
2022-08-30T05:41:19.984Z,16.60
2022-08-30T05:43:47.987Z,16.35
2022-08-30T05:46:19.897Z,17.17
2022-08-30T05:48:47.566Z,15.00
2022-08-30T05:51:17.720Z,14.20
2022-08-30T05:53:45.767Z,16.83
2022-08-30T05:56:15.710Z,15.50
2022-08-30T05:58:42.717Z,14.88
2022-08-30T06:01:20.565Z,14.27
2022-08-30T06:03:47.679Z,16.13
2022-08-30T06:06:14.415Z,14.70
2022-08-30T06:08:41.087Z,14.70
2022-08-30T06:11:07.979Z,15.35
2022-08-30T06:13:34.819Z,16.55
2022-08-30T06:16:01.588Z,15.80
2022-08-30T06:18:29.013Z,16.73
2022-08-30T06:20:55.920Z,19.40
2022-08-30T06:23:22.923Z,16.80
2022-08-30T06:25:49.844Z,17.58
2022-08-30T06:28:16.697Z,16.50
2022-08-30T06:30:43.622Z,20.77
2022-08-30T06:33:10.829Z,17.60
2022-08-30T06:35:46.820Z,16.67
2022-08-30T06:38:23.780Z,15.02
2022-08-30T06:40:51.027Z,16.52
2022-08-30T06:43:17.761Z,14.45
2022-08-30T06:45:44.448Z,12.18
2022-08-30T06:48:11.187Z,12.02
2022-08-30T06:50:38.091Z,11.80
2022-08-30T06:53:06.158Z,13.73
2022-08-30T06:55:35.644Z,12.98
2022-08-30T06:58:03.256Z,11.70
2022-08-30T07:00:30.275Z,12.98
2022-08-30T07:02:57.542Z,14.90
2022-08-30T07:05:24.275Z,12.20
2022-08-30T07:07:53.492Z,11.70
2022-08-30T07:10:21.537Z,12.40
2022-08-30T07:12:49.011Z,11.90
2022-08-30T07:15:16.342Z,13.18
2022-08-30T07:18:18.703Z,14.35
2022-08-30T07:20:45.620Z,13.60
2022-08-30T07:23:12.371Z,14.45
2022-08-30T07:25:40.717Z,15.13
2022-08-30T07:28:08.964Z,16.17
2022-08-30T07:30:36.298Z,14.00
2022-08-30T07:33:03.139Z,15.05
2022-08-30T07:35:30.034Z,15.05
2022-08-30T07:37:56.702Z,14.45
2022-08-30T07:40:23.503Z,14.07
2022-08-30T07:42:50.791Z,14.27
2022-08-30T07:45:18.638Z,12.63
2022-08-30T07:47:45.897Z,12.60
2022-08-30T07:50:13.004Z,11.57
2022-08-30T07:52:39.696Z,12.80
2022-08-30T07:55:07.199Z,11.73
2022-08-30T07:57:34.629Z,11.73
2022-08-30T08:00:02.189Z,12.93
2022-08-30T08:02:28.921Z,13.85
2022-08-30T08:04:55.614Z,13.98
2022-08-30T08:07:22.419Z,13.77
2022-08-30T08:09:49.637Z,13.63
2022-08-30T08:12:16.432Z,14.70
2022-08-30T08:14:43.155Z,11.80
2022-08-30T08:17:10.271Z,11.85
2022-08-30T08:19:36.952Z,11.43
2022-08-30T08:22:19.905Z,12.23
2022-08-30T08:24:47.509Z,12.38
2022-08-30T08:27:14.246Z,12.00
2022-08-30T08:29:41.024Z,14.05
2022-08-30T08:32:07.962Z,13.88
2022-08-30T08:34:35.924Z,13.15
2022-08-30T08:37:03.015Z,13.30
2022-08-30T08:39:29.992Z,14.27
2022-08-30T08:42:15.719Z,13.05
2022-08-30T08:44:55.392Z,12.77
2022-08-30T08:47:38.438Z,11.63
2022-08-30T08:50:13.324Z,11.73
2022-08-30T08:53:45.457Z,11.27
2022-08-30T08:56:16.742Z,11.48
2022-08-30T08:58:47.340Z,11.15
2022-08-30T09:01:16.517Z,11.60
2022-08-30T09:03:44.403Z,11.32
2022-08-30T09:06:17.027Z,11.88
2022-08-30T09:08:43.862Z,13.52
2022-08-30T09:11:21.377Z,11.68
2022-08-30T09:13:54.582Z,13.27
2022-08-30T09:16:48.323Z,13.50
2022-08-30T09:19:38.352Z,12.88
2022-08-30T09:22:26.731Z,14.95
2022-08-30T09:25:02.108Z,16.05
2022-08-30T09:27:41.059Z,15.38
2022-08-30T09:30:27.339Z,16.23
2022-08-30T09:33:00.333Z,15.32
2022-08-30T09:35:37.180Z,15.10
2022-08-30T09:38:10.523Z,14.48
2022-08-30T09:40:41.644Z,13.43
2022-08-30T09:43:22.726Z,12.45
2022-08-30T09:46:01.144Z,12.95
2022-08-30T09:48:34.236Z,14.50
2022-08-30T09:51:19.493Z,12.48
2022-08-30T09:54:07.319Z,12.85
2022-08-30T09:57:01.401Z,12.73
2022-08-30T09:59:49.582Z,12.98
2022-08-30T10:02:51.216Z,14.02
2022-08-30T10:05:36.776Z,13.45
2022-08-30T10:08:21.543Z,13.13
2022-08-30T10:11:15.152Z,13.70
2022-08-30T10:13:56.831Z,14.63
2022-08-30T10:16:40.955Z,15.18
2022-08-30T10:19:49.345Z,15.02
2022-08-30T10:22:36.452Z,14.20
2022-08-30T10:25:10.512Z,15.20
2022-08-30T10:27:49.763Z,15.25
2022-08-30T10:30:18.153Z,15.20
2022-08-30T10:32:58.651Z,14.05
2022-08-30T10:35:36.861Z,15.63
2022-08-30T10:38:26.819Z,14.60
2022-08-30T10:41:13.379Z,14.57
2022-08-30T10:43:52.753Z,13.75
2022-08-30T10:46:29.440Z,14.00
2022-08-30T10:48:59.303Z,14.48
2022-08-30T10:51:42.239Z,14.05
2022-08-30T10:54:12.480Z,13.32
2022-08-30T10:56:44.021Z,13.45
2022-08-30T10:59:11.930Z,14.45
2022-08-30T11:02:43.804Z,13.43
2022-08-30T11:05:16.297Z,13.18
2022-08-30T11:07:43.797Z,14.05
2022-08-30T11:10:33.589Z,13.45
2022-08-30T11:13:17.626Z,13.75
2022-08-30T11:15:55.321Z,12.95
2022-08-30T11:18:23.610Z,13.13
2022-08-30T11:20:56.382Z,12.50
2022-08-30T11:23:36.132Z,11.90
2022-08-30T11:26:32.364Z,11.48
2022-08-30T11:28:59.396Z,10.35
2022-08-30T11:31:32.865Z,11.27
2022-08-30T11:34:00.995Z,11.23
2022-08-30T11:36:37.491Z,10.73
2022-08-30T11:39:12.670Z,9.07
2022-08-30T11:41:47.804Z,10.40
2022-08-30T11:44:31.500Z,9.25
2022-08-30T11:47:21.829Z,10.10
2022-08-30T11:50:13.543Z,8.25
2022-08-30T11:52:54.116Z,8.80
2022-08-30T11:55:26.745Z,8.00
2022-08-30T11:58:11.497Z,9.45
2022-08-30T12:00:41.487Z,9.95
2022-08-30T12:03:08.506Z,8.05
2022-08-30T12:05:38.759Z,8.43
2022-08-30T12:08:28.089Z,8.10
2022-08-30T12:11:04.715Z,7.30
2022-08-30T12:13:34.454Z,7.38
2022-08-30T12:16:03.498Z,7.88
2022-08-30T12:18:44.554Z,7.55
2022-08-30T12:21:21.475Z,7.85
2022-08-30T12:23:55.625Z,7.65
2022-08-30T12:26:25.751Z,7.07
2022-08-30T12:29:12.529Z,6.63
2022-08-30T12:32:03.342Z,7.35
2022-08-30T12:34:41.294Z,7.97
2022-08-30T12:37:19.634Z,7.55
2022-08-30T12:39:53.444Z,8.23
2022-08-30T12:42:28.042Z,7.45
2022-08-30T12:44:59.227Z,7.63
2022-08-30T12:47:47.311Z,7.88
2022-08-30T12:50:28.691Z,8.05
2022-08-30T12:53:01.199Z,7.88
2022-08-30T12:55:33.946Z,8.35
2022-08-30T12:58:01.154Z,7.78
2022-08-30T13:00:30.831Z,8.88
2022-08-30T13:03:00.892Z,7.75
2022-08-30T13:05:54.877Z,8.07
2022-08-30T13:08:27.604Z,8.57
2022-08-30T13:11:08.502Z,8.57
2022-08-30T13:13:52.282Z,8.75
2022-08-30T13:16:22.704Z,8.15
2022-08-30T13:18:55.807Z,8.52
2022-08-30T13:21:24.056Z,8.18
2022-08-30T13:23:56.751Z,8.40
2022-08-30T13:26:23.556Z,8.23
2022-08-30T13:29:03.912Z,9.02
2022-08-30T13:31:31.274Z,9.50
2022-08-30T13:33:59.747Z,9.60
2022-08-30T13:36:30.765Z,9.73
2022-08-30T13:38:59.345Z,9.43
2022-08-30T13:41:26.202Z,9.30
2022-08-30T13:44:14.281Z,10.15
2022-08-30T13:46:52.277Z,9.70
2022-08-30T13:52:21.394Z,8.73
2022-08-30T13:54:56.453Z,9.38
2022-08-30T14:00:19.421Z,9.60
2022-08-30T14:02:54.034Z,9.57
2022-08-30T14:05:48.801Z,9.02
2022-08-30T14:08:48.533Z,9.48
2022-08-30T14:11:19.832Z,9.40
2022-08-30T14:16:39.305Z,10.20
2022-08-30T14:19:07.426Z,10.13
2022-08-30T14:21:35.278Z,8.90
2022-08-30T14:24:04.849Z,9.25
2022-08-30T14:26:40.946Z,9.98
2022-08-30T14:29:10.211Z,9.43
2022-08-30T14:31:41.528Z,8.93
2022-08-30T14:34:10.953Z,9.23
2022-08-30T14:36:40.130Z,11.20
2022-08-30T14:39:09.069Z,10.00
2022-08-30T14:41:43.693Z,9.73
2022-08-30T14:44:11.985Z,9.75
2022-08-30T14:46:38.735Z,8.63
2022-08-30T14:49:07.337Z,9.55
2022-08-30T14:51:36.878Z,9.68
2022-08-30T14:54:03.662Z,10.07
2022-08-30T14:56:31.350Z,9.40
2022-08-30T14:59:00.706Z,8.50
2022-08-30T15:01:29.703Z,9.30
2022-08-30T15:03:57.872Z,9.30
2022-08-30T15:06:26.370Z,9.68
2022-08-30T15:08:56.442Z,9.73
2022-08-30T15:11:25.858Z,9.70
2022-08-30T15:14:01.847Z,9.27
2022-08-30T15:16:33.046Z,9.52
2022-08-30T15:19:00.010Z,9.30
2022-08-30T15:21:32.379Z,9.85
2022-08-30T15:24:00.810Z,10.70
2022-08-30T15:26:28.305Z,10.45
2022-08-30T15:28:55.679Z,9.75
2022-08-30T15:31:31.723Z,9.68
2022-08-30T15:33:59.156Z,10.45
2022-08-30T15:36:27.827Z,10.20
2022-08-30T15:38:59.974Z,10.98
2022-08-30T15:41:28.486Z,9.98
2022-08-30T15:43:58.964Z,11.27
2022-08-30T15:46:31.922Z,11.18
2022-08-30T15:49:01.831Z,10.80
2022-08-30T15:51:28.997Z,11.15
2022-08-30T15:53:58.015Z,10.15
2022-08-30T15:56:24.815Z,11.45
2022-08-30T15:58:53.218Z,10.15
2022-08-30T16:01:30.350Z,9.55
2022-08-30T16:03:58.858Z,10.52
2022-08-30T16:06:29.440Z,10.45
2022-08-30T16:08:57.114Z,11.88
2022-08-30T16:11:25.417Z,11.35
2022-08-30T16:13:53.966Z,11.23
2022-08-30T16:16:22.586Z,12.70
2022-08-30T16:18:54.378Z,12.18
2022-08-30T16:21:30.444Z,12.63
2022-08-30T16:24:00.348Z,13.20
2022-08-30T16:26:29.320Z,12.07
2022-08-30T16:28:56.441Z,12.57
2022-08-30T16:31:27.041Z,11.70
2022-08-30T16:33:55.089Z,12.07
2022-08-30T16:36:26.555Z,11.50
2022-08-30T16:38:58.152Z,11.10
2022-08-30T16:41:25.817Z,11.57
2022-08-30T16:43:53.350Z,11.98
2022-08-30T16:46:22.902Z,11.60
2022-08-30T16:48:53.795Z,11.88
2022-08-30T16:51:23.979Z,12.85
2022-08-30T16:53:56.073Z,11.35
2022-08-30T16:56:27.270Z,12.35
2022-08-30T16:59:01.389Z,12.02
2022-08-30T17:01:30.651Z,12.65
2022-08-30T17:03:57.340Z,12.80
2022-08-30T17:06:23.986Z,12.90
2022-08-30T17:08:55.773Z,13.02
2022-08-30T17:11:23.110Z,13.98
2022-08-30T17:13:49.726Z,13.00
2022-08-30T17:16:22.261Z,12.25
2022-08-30T17:18:54.448Z,13.48
2022-08-30T17:21:21.121Z,14.40
2022-08-30T17:23:49.296Z,14.52
2022-08-30T17:26:16.335Z,14.93
2022-08-30T17:28:43.142Z,14.00
2022-08-30T17:31:11.399Z,14.02
2022-08-30T17:33:39.951Z,15.02
2022-08-30T17:36:07.483Z,14.07
2022-08-30T17:38:35.071Z,15.35
2022-08-30T17:41:06.530Z,14.77
2022-08-30T17:43:36.027Z,14.73
2022-08-30T17:46:08.259Z,15.20
2022-08-30T17:48:35.831Z,14.95
2022-08-30T17:51:02.911Z,15.40
2022-08-30T17:53:29.715Z,15.32
2022-08-30T17:55:56.671Z,14.85
2022-08-30T17:58:25.444Z,15.73
2022-08-30T18:00:54.148Z,15.73
2022-08-30T18:03:21.242Z,14.70
2022-08-30T18:05:48.068Z,15.70
2022-08-30T18:08:14.735Z,15.90
2022-08-30T18:10:41.621Z,16.40
2022-08-30T18:13:09.633Z,17.15
2022-08-30T18:15:36.273Z,16.92
2022-08-30T18:18:05.150Z,17.55
2022-08-30T18:20:32.216Z,18.27
2022-08-30T18:22:58.911Z,19.50
2022-08-30T18:25:25.604Z,18.98
2022-08-30T18:27:57.115Z,18.95
2022-08-30T18:30:33.159Z,18.50
2022-08-30T18:33:00.890Z,18.20
2022-08-30T18:35:27.705Z,18.08
2022-08-30T18:37:54.609Z,19.38
2022-08-30T18:40:22.834Z,19.02
2022-08-30T18:42:49.871Z,16.73
2022-08-30T18:45:17.619Z,18.98
2022-08-30T18:47:45.080Z,16.85
2022-08-30T18:50:12.484Z,17.73
2022-08-30T18:52:39.205Z,18.58
2022-08-30T18:55:07.372Z,17.98
2022-08-30T18:57:35.530Z,18.55
2022-08-30T19:00:03.755Z,17.52
2022-08-30T19:02:30.474Z,17.75
2022-08-30T19:04:57.213Z,18.33
2022-08-30T19:07:29.972Z,18.60
2022-08-30T19:10:05.620Z,17.25
2022-08-30T19:12:32.279Z,19.27
2022-08-30T19:14:59.374Z,18.48
2022-08-30T19:17:26.582Z,17.75
2022-08-30T19:19:55.202Z,18.67
2022-08-30T19:22:24.021Z,21.80
2022-08-30T19:24:54.307Z,18.80
2022-08-30T19:27:37.166Z,18.65
2022-08-30T19:30:10.136Z,19.33
2022-08-30T19:32:37.101Z,17.95
2022-08-30T19:35:04.382Z,18.42
2022-08-30T19:37:31.146Z,17.95
2022-08-30T19:40:01.522Z,17.45
2022-08-30T19:42:28.455Z,18.75
2022-08-30T19:44:55.162Z,17.40
2022-08-30T19:47:21.856Z,17.77
2022-08-30T19:49:48.616Z,17.15
2022-08-30T19:52:15.429Z,20.23
2022-08-30T19:54:42.152Z,19.70
2022-08-30T19:57:10.054Z,17.83
2022-08-30T19:59:37.671Z,17.98
2022-08-30T20:02:05.646Z,17.50
2022-08-30T20:04:33.891Z,17.42
2022-08-30T20:07:01.165Z,17.98
2022-08-30T20:09:28.159Z,17.38
2022-08-30T20:11:58.820Z,16.88
2022-08-30T20:14:26.154Z,18.77
2022-08-30T20:16:53.427Z,18.25
2022-08-30T20:19:21.813Z,17.80
2022-08-30T20:21:54.607Z,16.25
2022-08-30T20:24:28.213Z,16.13
2022-08-30T20:26:57.727Z,16.05
2022-08-30T20:29:24.443Z,15.77
2022-08-30T20:31:51.070Z,14.60
2022-08-30T20:34:17.860Z,14.90
2022-08-30T20:36:44.681Z,15.52
2022-08-30T20:39:17.400Z,15.75
2022-08-30T20:41:45.338Z,15.98
2022-08-30T20:44:13.663Z,17.27
2022-08-30T20:46:47.066Z,17.80
2022-08-30T20:49:14.379Z,18.55
2022-08-30T20:51:41.170Z,17.92
2022-08-30T20:54:08.860Z,19.08
2022-08-30T20:56:36.246Z,18.17
2022-08-30T20:59:04.397Z,17.92
2022-08-30T21:01:33.521Z,19.98
2022-08-30T21:04:00.221Z,17.77
2022-08-30T21:06:27.011Z,19.23
2022-08-30T21:08:53.958Z,18.73
2022-08-30T21:11:21.093Z,18.77
2022-08-30T21:13:48.568Z,18.58
2022-08-30T21:16:17.182Z,19.17
2022-08-30T21:18:48.797Z,20.17
2022-08-30T21:21:21.456Z,19.33
2022-08-30T21:23:58.564Z,19.05
2022-08-30T21:26:25.503Z,19.30
2022-08-30T21:28:54.064Z,20.25
2022-08-30T21:31:23.325Z,20.95
2022-08-30T21:33:51.974Z,21.02
2022-08-30T21:36:38.357Z,21.58
2022-08-30T21:39:06.845Z,21.08
2022-08-30T21:41:34.946Z,21.52
2022-08-30T21:44:05.472Z,21.42
2022-08-30T21:46:33.846Z,21.67
2022-08-30T21:49:03.771Z,21.85
2022-08-30T21:51:34.890Z,21.65
2022-08-30T21:54:02.574Z,21.90
2022-08-30T21:56:29.242Z,21.40
2022-08-30T21:58:55.977Z,21.65
2022-08-30T22:01:25.183Z,21.27
2022-08-30T22:03:54.273Z,21.75
2022-08-30T22:06:22.064Z,20.85
2022-08-30T22:08:52.053Z,19.88
2022-08-30T22:11:23.786Z,21.67
2022-08-30T22:13:51.922Z,19.00
2022-08-30T22:16:19.664Z,17.58
2022-08-30T22:18:47.506Z,17.70
2022-08-30T22:21:17.711Z,17.40
2022-08-30T22:23:45.063Z,19.10
2022-08-30T22:26:13.985Z,20.17
2022-08-30T22:28:40.616Z,17.48
2022-08-30T22:31:11.232Z,16.75
2022-08-30T22:33:38.968Z,17.33
2022-08-30T22:36:12.621Z,16.95
2022-08-30T22:38:39.771Z,16.35
2022-08-30T22:41:15.124Z,16.90
2022-08-30T22:43:42.082Z,15.30
2022-08-30T22:46:09.178Z,16.17
2022-08-30T22:48:37.468Z,16.85
2022-08-30T22:51:04.637Z,15.57
2022-08-30T22:53:32.676Z,14.45
2022-08-30T22:56:00.597Z,14.60
2022-08-30T22:58:27.274Z,14.90
2022-08-30T23:00:54.934Z,14.43
2022-08-30T23:03:22.363Z,14.65
2022-08-30T23:05:49.025Z,13.35
2022-08-30T23:08:15.606Z,13.93
2022-08-30T23:10:42.290Z,13.88
2022-08-30T23:13:08.986Z,14.13
2022-08-30T23:15:35.697Z,13.98
2022-08-30T23:18:02.866Z,12.82
2022-08-30T23:20:29.710Z,13.38
2022-08-30T23:22:59.484Z,14.02
2022-08-30T23:25:47.783Z,12.90
2022-08-30T23:28:39.045Z,11.95
2022-08-30T23:31:35.941Z,14.30
2022-08-30T23:34:21.477Z,12.40
2022-08-30T23:37:06.752Z,11.55
2022-08-30T23:39:52.239Z,11.82
2022-08-30T23:42:37.589Z,11.82
2022-08-30T23:45:23.524Z,11.68
2022-08-30T23:48:08.809Z,11.52
2022-08-30T23:50:54.323Z,12.55
2022-08-30T23:53:39.491Z,11.90
2022-08-30T23:56:30.748Z,12.15
2022-08-30T23:59:16.074Z,12.68
